TAPATNCM

Guest
Details From TAPA - Antigua - V C Bird Intl
To TNCM - St Maarten - Princess Juliana Intl
Flight Number -
Tags generated
Created
Modified
Stats Distance 93 nm / 172 km
Max Altitude 8,400 ft / 2,560 m
Waypoints 3
Social Downloads 0
Likes 0
Share VATSIM

Download

Looking for another format? Having issues loading an existing format? Contact us
Advertisement - Login to hide

Notes

Basic altitude profile: - Ascent Rate: 2500ft/min - Ascent Speed: 250kts - Cruise Altitude: 13000ft - Cruise Speed: 280kts - Descent Rate: 1500ft/min - Descent Speed: 250kts Options: - Use NATs: yes - Use PACOTS: yes - Use low airways: yes - Use high airways: yes

Route

TAPA ELOPO TNCM

ID Type Via Altitude Latitude Longitude Leg Dist Tot Dist Heading (true) Name
O TAPA APT - 0 ft / 0 m 17.13674˚ -61.79266˚ - 0 nm - Antigua - V C Bird Intl
ELOPO FIX - 8,400 ft / 2,560 m 17.65006˚ -62.55439˚ 53 nm 53 nm 305° / 305° -
O TNCM APT - 0 ft / 0 m 18.04089˚ -63.10897˚ 39 nm 92 nm 307° / 306° St Maarten - Princess Juliana Intl

Altitude Profile

Advertisement - Login to hide

TAPA

Details ICAO TAPA (ANU)
Name Antigua - V C Bird Intl
Region Antigua and Barbuda
Timezone America/Antigua (UTC-4.0)
Stats Elevation 62 ft / 19 m (AMSL)
Location 17.136737° -61.792662°
Runways 1
Magnetic Variation 14.767° W

METAR

TAPA 130000Z 00000KT 9999 FEW018 24/20 Q1014 NOSIG

Decode

TAF

Not found

Departure Runways

ID Width Length Bearing (true) Bearing (mag) Surface Threshold Offset Overrun Length
07 148 ft / 45 m 9,022 ft / 2,750 m 58.28° 73.05° Asphalt 656 ft / 200 m 0 ft / 0 m
25 148 ft / 45 m 9,022 ft / 2,750 m 238.29° 253.06° Asphalt 0 ft / 0 m 0 ft / 0 m

TNCM

Details ICAO TNCM (SXM)
Name St Maarten - Princess Juliana Intl
Region Caribbean Netherlands, Aruba, Curaçao, Sint Maarten
Timezone Unknown (UTC+0.0)
Stats Elevation 12 ft / 4 m (AMSL)
Location 18.040889° -63.108974°
Runways 1
Magnetic Variation 14.325° W

METAR

TNCM 130000Z 13004KT 090V170 CAVOK 27/21 Q1014 A2996 NOSIG

Decode

TAF

TAF TNCM 122320Z 1300/1324 13007KT P6SM FEW020 FM131500 15008KT P6SM SCT030

Decode

Destination Runways

ID Width Length Bearing (true) Bearing (mag) Surface Threshold Offset Overrun Length
10 148 ft / 45 m 7,464 ft / 2,275 m 81.43° 95.75° Asphalt 0 ft / 0 m 151 ft / 46 m
28 148 ft / 45 m 7,464 ft / 2,275 m 261.44° 275.76° Asphalt 397 ft / 121 m 0 ft / 0 m

Popular Alternatives